Time;durP1;ratioP1;P1;durP2;ratioP2;P2;SDS_P1;SDS_P2;PMS_P1;PMS_P2;Temp;Humidity;BMP_temperature;BMP_pressure;BME280_temperature;BME280_humidity;BME280_pressure;Samples;Min_cycle;Max_cycle;Signal;HPM_P1;HPM_P2
2022/08/23 00:02:20;;;;;;;6.50;3.50;;;;;;;21.25;69.14;98564.64;238884;1192;139921;-57
2022/08/23 00:07:26;;;;;;;4.40;3.40;;;;;;;21.28;69.21;98569.06;238978;1192;139764;-57
2022/08/23 00:12:31;;;;;;;4.20;3.60;;;;;;;21.32;69.40;98569.61;238583;1190;139164;-56
2022/08/23 00:17:35;;;;;;;6.40;4.10;;;;;;;21.32;69.39;98579.27;237877;1191;140505;-57
2022/08/23 00:22:39;;;;;;;5.40;4.90;;;;;;;21.30;69.38;98581.30;238792;1190;139342;-58
2022/08/23 00:27:43;;;;;;;6.30;4.60;;;;;;;21.31;69.44;98580.28;238713;1192;141738;-57
2022/08/23 00:32:46;;;;;;;8.80;5.80;;;;;;;21.33;69.48;98576.23;238771;1191;139283;-57
2022/08/23 00:37:50;;;;;;;8.80;6.60;;;;;;;21.39;69.56;98582.08;238899;1191;139003;-58
2022/08/23 00:48:38;;;;;;;8.00;6.50;;;;;;;21.36;69.43;98600.56;238466;1192;139030;-57
2022/08/23 00:53:46;;;;;;;7.40;5.80;;;;;;;21.37;69.43;98600.03;238648;1190;140379;-57
2022/08/23 00:58:50;;;;;;;11.10;6.80;;;;;;;21.40;69.55;98601.74;237754;1190;139415;-58
2022/08/23 01:03:57;;;;;;;10.30;8.10;;;;;;;21.41;69.63;98608.84;238750;1190;139472;-56
2022/08/23 01:09:12;;;;;;;10.70;7.50;;;;;;;21.44;69.69;98610.20;238990;1191;139927;-58
2022/08/23 01:14:25;;;;;;;11.00;6.90;;;;;;;21.43;69.69;98604.52;238870;1192;141126;-58
2022/08/23 01:19:42;;;;;;;10.00;7.00;;;;;;;21.44;69.55;98603.32;237428;1192;140197;-58
2022/08/23 01:24:49;;;;;;;10.10;7.20;;;;;;;21.42;69.45;98598.27;238861;1190;139660;-57
2022/08/23 01:30:22;;;;;;;9.00;7.20;;;;;;;21.39;69.52;98595.38;238311;1191;140357;-57
2022/08/23 01:35:39;;;;;;;8.80;7.50;;;;;;;21.36;69.55;98578.40;239120;1191;138515;-58
2022/08/23 01:40:43;;;;;;;8.10;7.30;;;;;;;21.33;69.40;98582.55;238552;1192;138828;-57
2022/08/23 01:45:48;;;;;;;9.40;7.50;;;;;;;21.30;69.29;98586.46;238807;1191;140689;-57
2022/08/23 01:50:52;;;;;;;8.40;7.30;;;;;;;21.30;69.28;98587.27;238947;1192;139898;-57
2022/08/23 01:55:55;;;;;;;8.50;7.60;;;;;;;21.27;69.35;98592.41;237465;1192;139561;-59
2022/08/23 02:01:00;;;;;;;10.30;8.20;;;;;;;21.26;69.50;98597.55;238206;1191;139421;-57
2022/08/23 02:06:04;;;;;;;7.80;7.00;;;;;;;21.22;69.33;98598.02;239098;1190;139628;-56
2022/08/23 02:11:10;;;;;;;9.80;8.30;;;;;;;21.23;69.55;98597.78;238771;1190;140641;-57
2022/08/23 02:16:23;;;;;;;10.70;9.10;;;;;;;21.28;69.56;98592.10;238697;1192;139839;-57
2022/08/23 02:21:30;;;;;;;10.60;9.00;;;;;;;21.30;69.63;98590.52;238443;1191;140563;-58
2022/08/23 02:26:38;;;;;;;12.10;9.30;;;;;;;21.29;69.60;98594.04;238501;1192;139743;-57
2022/08/23 02:31:43;;;;;;;10.30;8.60;;;;;;;21.24;69.60;98596.55;238462;1191;139769;-59
2022/08/23 02:36:46;;;;;;;13.10;9.00;;;;;;;21.27;69.71;98603.29;238809;1190;140878;-58
2022/08/23 02:41:50;;;;;;;16.10;9.80;;;;;;;21.34;69.76;98598.48;238805;1191;139525;-57
2022/08/23 02:46:54;;;;;;;12.80;10.70;;;;;;;21.34;69.59;98596.48;238839;1191;139645;-58
2022/08/23 02:51:57;;;;;;;15.80;11.90;;;;;;;21.36;69.66;98595.56;238853;1192;139879;-57
2022/08/23 02:57:01;;;;;;;20.10;14.00;;;;;;;21.35;69.48;98591.86;238394;1190;139882;-60
2022/08/23 03:02:04;;;;;;;15.90;12.90;;;;;;;21.30;69.24;98596.94;238834;1190;140484;-57
2022/08/23 03:07:11;;;;;;;22.50;14.70;;;;;;;21.26;69.44;98606.45;238787;1192;139781;-58
2022/08/23 03:12:14;;;;;;;20.00;15.20;;;;;;;21.25;69.60;98607.45;238660;1192;138980;-57
2022/08/23 03:17:21;;;;;;;20.90;15.30;;;;;;;21.24;69.64;98606.30;238716;1192;141074;-56
2022/08/23 03:22:25;;;;;;;18.30;13.70;;;;;;;21.24;69.65;98611.14;238680;1190;139410;-58
2022/08/23 03:27:30;;;;;;;16.30;12.50;;;;;;;21.28;69.70;98624.95;238751;1191;140988;-57
2022/08/23 03:32:41;;;;;;;14.00;11.40;;;;;;;21.29;69.53;98631.70;238869;1191;140154;-57
2022/08/23 03:37:52;;;;;;;21.60;11.80;;;;;;;21.32;69.71;98630.45;238866;1190;140261;-58
2022/08/23 03:42:57;;;;;;;14.90;11.90;;;;;;;21.30;69.62;98625.13;237867;1192;139600;-58
2022/08/23 03:48:00;;;;;;;15.90;12.40;;;;;;;21.24;69.48;98623.98;237655;1191;139441;-57
2022/08/23 03:53:06;;;;;;;14.90;11.10;;;;;;;21.19;69.43;98631.25;237550;1192;141042;-57
2022/08/23 03:58:15;;;;;;;17.00;12.10;;;;;;;21.20;69.60;98636.71;238711;1192;139812;-58
2022/08/23 04:03:18;;;;;;;15.70;12.10;;;;;;;21.20;69.70;98631.34;238661;1192;139720;-56
2022/08/23 04:08:36;;;;;;;18.00;12.20;;;;;;;21.18;69.74;98631.52;238828;1191;139994;-57
2022/08/23 04:13:39;;;;;;;14.70;11.50;;;;;;;21.17;69.65;98638.66;238696;1192;140116;-57
2022/08/23 04:18:43;;;;;;;14.50;10.30;;;;;;;21.14;69.48;98641.67;239047;1190;140208;-57
2022/08/23 04:23:47;;;;;;;12.60;10.60;;;;;;;21.14;69.65;98647.83;237972;1191;141048;-57
2022/08/23 04:28:50;;;;;;;17.60;11.60;;;;;;;21.14;69.70;98651.41;238751;1191;140302;-57
2022/08/23 04:33:55;;;;;;;15.80;11.60;;;;;;;21.16;69.83;98655.23;238936;1190;139680;-58
2022/08/23 04:38:58;;;;;;;;;;;;;;;21.17;69.77;98655.77;238831;1190;139897;-58
2022/08/23 04:44:04;;;;;;;13.40;9.40;;;;;;;21.20;69.79;98658.67;238386;1193;151031;-57
2022/08/23 04:49:08;;;;;;;;;;;;;;;21.26;69.85;98658.92;238865;1190;140256;-58
2022/08/23 04:54:11;;;;;;;16.00;10.10;;;;;;;21.29;69.76;98664.82;238963;1192;125639;-58
2022/08/23 04:59:32;;;;;;;16.30;9.60;;;;;;;21.27;69.78;98672.66;238526;1190;139037;-58
2022/08/23 05:04:35;;;;;;;12.40;8.30;;;;;;;21.25;69.64;98677.07;238754;1190;139199;-58
2022/08/23 05:09:38;;;;;;;11.00;8.20;;;;;;;21.25;69.76;98677.40;238869;1191;141996;-57
2022/08/23 05:14:41;;;;;;;9.30;7.20;;;;;;;21.30;69.72;98676.52;238664;1191;140535;-58
2022/08/23 05:19:51;;;;;;;12.40;8.20;;;;;;;21.40;69.86;98680.45;238734;1192;139048;-58
2022/08/23 05:24:54;;;;;;;9.10;7.50;;;;;;;21.43;69.70;98684.98;237260;1190;139187;-59
2022/08/23 05:29:57;;;;;;;12.10;7.60;;;;;;;21.40;69.52;98694.02;239023;1191;139230;-59
2022/08/23 05:35:00;;;;;;;10.80;7.40;;;;;;;21.43;69.86;98699.56;237964;1190;139884;-59
2022/08/23 05:40:05;;;;;;;12.10;8.10;;;;;;;21.46;69.65;98704.50;238664;1192;139195;-58
2022/08/23 05:45:13;;;;;;;12.70;8.60;;;;;;;21.46;69.61;98705.81;238912;1190;139149;-58
2022/08/23 05:50:22;;;;;;;11.50;8.60;;;;;;;21.44;69.58;98712.15;238908;1190;139615;-59
2022/08/23 05:55:26;;;;;;;12.10;7.60;;;;;;;21.44;69.78;98716.79;238822;1191;139208;-59
2022/08/23 06:00:54;;;;;;;11.20;8.00;;;;;;;21.52;69.75;98716.55;238967;1191;140261;-59
2022/08/23 06:05:58;;;;;;;15.60;8.40;;;;;;;21.59;69.71;98719.30;238970;1190;139813;-59
2022/08/23 06:11:04;;;;;;;11.90;8.30;;;;;;;21.65;69.70;98721.55;238251;1190;139166;-59
2022/08/23 06:16:17;;;;;;;13.00;8.50;;;;;;;21.71;69.67;98718.17;238558;1192;140407;-58
2022/08/23 06:21:21;;;;;;;9.70;7.60;;;;;;;21.79;69.73;98724.98;237877;1190;138846;-59
2022/08/23 06:26:30;;;;;;;11.90;7.20;;;;;;;21.92;69.73;98720.73;238240;1190;139847;-58
2022/08/23 06:31:45;;;;;;;12.60;7.80;;;;;;;22.01;69.59;98727.59;238791;1191;139716;-58
2022/08/23 06:36:55;;;;;;;10.80;7.30;;;;;;;22.05;69.44;98737.61;238732;1192;139411;-59
2022/08/23 06:42:34;;;;;;;10.50;7.80;;;;;;;22.06;69.37;98743.63;238653;1192;139112;-59
2022/08/23 06:47:43;;;;;;;11.80;8.20;;;;;;;22.11;69.43;98748.44;238774;1191;139056;-59
2022/08/23 06:52:47;;;;;;;11.60;8.30;;;;;;;22.17;69.52;98744.16;238928;1190;141177;-59
2022/08/23 06:58:23;;;;;;;12.70;8.60;;;;;;;22.26;69.46;98748.34;238615;1191;139034;-59
2022/08/23 07:03:45;;;;;;;12.40;9.30;;;;;;;22.26;69.18;98747.49;238721;1191;139863;-59
2022/08/23 07:09:07;;;;;;;14.70;8.90;;;;;;;22.29;69.44;98750.23;238800;1191;139495;-59
2022/08/23 07:14:13;;;;;;;17.10;8.80;;;;;;;22.36;69.33;98745.76;236694;1192;138950;-58
2022/08/23 07:19:19;;;;;;;12.70;8.40;;;;;;;22.47;69.38;98760.44;237864;1190;140260;-58
2022/08/23 07:24:23;;;;;;;16.10;9.00;;;;;;;22.54;69.29;98761.38;238578;1192;139942;-59
2022/08/23 07:29:34;;;;;;;15.80;10.00;;;;;;;22.61;69.18;98766.68;238604;1192;139138;-58
2022/08/23 07:34:38;;;;;;;15.80;10.10;;;;;;;22.61;69.02;98777.55;238904;1190;139489;-58
2022/08/23 07:39:42;;;;;;;11.30;8.70;;;;;;;22.66;69.09;98783.56;238859;1190;141569;-57
2022/08/23 07:44:44;;;;;;;13.00;8.40;;;;;;;22.77;69.11;98781.45;238500;1192;140783;-59
2022/08/23 07:49:49;;;;;;;12.60;9.30;;;;;;;22.92;68.95;98779.44;238776;1190;139674;-59
2022/08/23 07:54:54;;;;;;;11.10;8.30;;;;;;;23.04;68.88;98784.10;238816;1192;139020;-58
2022/08/23 08:00:34;;;;;;;13.00;8.90;;;;;;;23.16;68.70;98784.89;238570;1192;142038;-59
2022/08/23 08:05:48;;;;;;;14.70;9.40;;;;;;;23.21;68.46;98782.48;239115;1190;139300;-59
2022/08/23 08:10:53;;;;;;;17.90;10.10;;;;;;;23.25;68.15;98793.08;238067;1190;140260;-59
2022/08/23 08:15:57;;;;;;;12.50;9.70;;;;;;;23.23;67.99;98793.60;238978;1191;139627;-58
2022/08/23 08:21:05;;;;;;;16.20;9.50;;;;;;;23.22;67.89;98794.29;238800;1191;139111;-59
2022/08/23 08:26:35;;;;;;;13.60;9.20;;;;;;;23.29;67.99;98801.72;238772;1191;139396;-59
2022/08/23 08:31:40;;;;;;;11.60;9.00;;;;;;;23.30;67.72;98807.49;238773;1192;140068;-58
2022/08/23 08:36:52;;;;;;;14.40;10.00;;;;;;;23.32;67.74;98814.51;236910;1192;140704;-58
2022/08/23 08:42:11;;;;;;;15.50;10.10;;;;;;;23.41;67.72;98820.98;238895;1191;140516;-59
2022/08/23 08:47:35;;;;;;;17.80;10.70;;;;;;;23.47;67.58;98818.55;238875;1192;139450;-58
2022/08/23 08:52:43;;;;;;;19.90;10.50;;;;;;;23.49;67.53;98822.75;238644;1192;139322;-58
2022/08/23 08:57:53;;;;;;;14.00;10.30;;;;;;;23.58;67.41;98818.59;238703;1191;140401;-57
2022/08/23 09:02:59;;;;;;;15.40;10.90;;;;;;;23.64;67.23;98815.73;237091;1192;139538;-58
2022/08/23 09:08:24;;;;;;;;;;;;;;;23.73;67.13;98816.67;238673;1190;142286;-59
2022/08/23 09:13:47;;;;;;;14.30;10.30;;;;;;;23.81;67.27;98814.11;238046;1190;125268;-58
2022/08/23 09:18:53;;;;;;;17.60;9.90;;;;;;;23.97;67.38;98815.45;238646;1192;139211;-59
2022/08/23 09:23:56;;;;;;;19.00;11.50;;;;;;;24.13;67.25;98814.73;238565;1192;139946;-58
2022/08/23 09:29:27;;;;;;;15.60;10.90;;;;;;;24.26;66.96;98808.59;239065;1191;139692;-59
2022/08/23 09:34:36;;;;;;;17.50;11.50;;;;;;;24.34;66.68;98814.09;239005;1190;139494;-59
2022/08/23 09:39:49;;;;;;;14.50;10.20;;;;;;;24.35;66.30;98814.58;238180;1191;139489;-58
2022/08/23 09:44:55;;;;;;;14.20;10.90;;;;;;;24.35;66.26;98816.77;238994;1191;139619;-58
2022/08/23 09:50:46;;;;;;;15.40;10.60;;;;;;;24.42;66.36;98812.31;238994;1191;139584;-58
2022/08/23 09:55:53;;;;;;;14.60;10.50;;;;;;;24.67;66.36;98811.74;238115;1191;142159;-58
2022/08/23 10:01:25;;;;;;;14.40;11.60;;;;;;;24.73;65.72;98819.52;238961;1190;139274;-59
2022/08/23 10:06:39;;;;;;;15.90;11.30;;;;;;;24.66;65.35;98822.73;238908;1191;139434;-58
2022/08/23 10:11:45;;;;;;;17.40;11.70;;;;;;;24.64;65.50;98822.05;239134;1190;140098;-58
2022/08/23 10:17:03;;;;;;;12.40;10.20;;;;;;;24.71;65.60;98818.83;238359;1192;139776;-58
2022/08/23 10:22:41;;;;;;;14.40;10.20;;;;;;;24.92;65.87;98820.81;237934;1192;139922;-59
2022/08/23 10:33:56;;;;;;;19.00;10.80;;;;;;;25.32;65.12;98821.65;238847;1190;139351;-58
2022/08/23 10:39:33;;;;;;;14.00;10.40;;;;;;;25.42;64.88;98820.10;238414;1190;139238;-58
2022/08/23 10:44:50;;;;;;;15.90;10.70;;;;;;;25.56;64.59;98818.66;239010;1190;139660;-59
2022/08/23 10:50:05;;;;;;;15.10;10.40;;;;;;;25.69;64.51;98825.32;239060;1192;139340;-58
2022/08/23 10:55:35;;;;;;;12.10;10.50;;;;;;;25.72;64.11;98826.89;238867;1191;139408;-58
2022/08/23 11:00:40;;;;;;;15.90;9.50;;;;;;;25.66;63.74;98832.63;238653;1192;140341;-59
2022/08/23 11:06:24;;;;;;;15.10;10.10;;;;;;;25.67;63.85;98832.93;238722;1190;139554;-58
2022/08/23 11:11:38;;;;;;;16.20;11.10;;;;;;;26.05;64.37;98832.27;238941;1192;139853;-59
2022/08/23 11:16:45;;;;;;;15.10;10.20;;;;;;;26.50;64.13;98833.13;238638;1190;139270;-59
2022/08/23 11:21:49;;;;;;;14.90;10.90;;;;;;;26.81;63.53;98831.59;239067;1191;139314;-57
2022/08/23 11:26:53;;;;;;;;;;;;;;;27.02;62.98;98838.09;238590;1192;139802;-58
2022/08/23 11:32:16;;;;;;;15.90;10.00;;;;;;;27.21;62.61;98835.59;238649;1192;125537;-59
2022/08/23 11:37:19;;;;;;;15.60;10.80;;;;;;;27.27;61.95;98837.05;238663;1191;139279;-58
2022/08/23 11:42:36;;;;;;;13.40;10.80;;;;;;;27.19;61.56;98833.55;238463;1192;139529;-57
2022/08/23 11:47:42;;;;;;;16.80;10.10;;;;;;;27.23;61.36;98828.05;238911;1191;139416;-59
2022/08/23 11:53:14;;;;;;;12.90;9.70;;;;;;;27.17;61.07;98827.70;238109;1191;139293;-59
2022/08/23 11:58:22;;;;;;;10.80;7.80;;;;;;;27.22;60.85;98829.63;238814;1191;139940;-57
2022/08/23 12:03:34;;;;;;;14.40;8.80;;;;;;;27.17;60.33;98831.77;239050;1191;139559;-59
2022/08/23 12:08:53;;;;;;;10.90;9.10;;;;;;;27.26;60.12;98833.94;238894;1192;139474;-59
2022/08/23 12:14:00;;;;;;;12.40;10.20;;;;;;;27.44;59.93;98838.45;238851;1191;139137;-59
2022/08/23 12:19:07;;;;;;;12.50;8.80;;;;;;;27.63;59.60;98843.55;238697;1192;140012;-58
2022/08/23 12:24:41;;;;;;;15.60;9.10;;;;;;;27.68;59.19;98845.79;238898;1192;138928;-59
2022/08/23 12:29:48;;;;;;;12.70;8.90;;;;;;;27.72;58.88;98844.77;238471;1192;139361;-59
2022/08/23 12:35:09;;;;;;;14.80;8.90;;;;;;;27.91;58.84;98836.17;237758;1192;139018;-58
2022/08/23 12:40:20;;;;;;;13.90;9.30;;;;;;;28.16;58.67;98827.67;238804;1190;139350;-59
2022/08/23 12:45:23;;;;;;;10.80;9.30;;;;;;;28.39;58.45;98827.02;238758;1192;139105;-59
2022/08/23 12:50:43;;;;;;;15.30;9.40;;;;;;;28.39;57.81;98825.70;238278;1190;139295;-59
2022/08/23 12:55:49;;;;;;;13.60;9.10;;;;;;;28.26;57.19;98829.30;238888;1191;141723;-59
2022/08/23 13:00:56;;;;;;;10.30;8.80;;;;;;;28.07;56.86;98831.77;237615;1192;140053;-59
2022/08/23 13:06:07;;;;;;;12.60;9.10;;;;;;;27.97;56.86;98834.15;238077;1190;139761;-59
2022/08/23 13:11:16;;;;;;;10.40;8.70;;;;;;;27.78;56.76;98836.30;238943;1192;140280;-60
2022/08/23 13:16:27;;;;;;;8.90;8.00;;;;;;;27.57;56.59;98830.46;239004;1190;140282;-59
2022/08/23 13:21:31;;;;;;;13.50;9.00;;;;;;;27.49;56.83;98827.41;238557;1192;139632;-60
2022/08/23 13:26:42;;;;;;;10.10;7.60;;;;;;;27.79;57.41;98823.64;238497;1191;139168;-60
2022/08/23 13:31:51;;;;;;;11.80;8.40;;;;;;;28.09;57.29;98821.46;238027;1192;138954;-59
2022/08/23 13:37:01;;;;;;;14.20;8.00;;;;;;;28.09;56.54;98818.22;238940;1190;139055;-60
2022/08/23 13:42:04;;;;;;;9.60;7.80;;;;;;;28.17;56.23;98812.94;238882;1192;139298;-60
2022/08/23 13:47:21;;;;;;;9.70;7.70;;;;;;;28.38;56.45;98809.86;238392;1191;138878;-59
2022/08/23 13:52:24;;;;;;;9.90;7.40;;;;;;;28.64;56.29;98807.27;237643;1191;138588;-59
2022/08/23 13:57:47;;;;;;;9.80;7.20;;;;;;;28.87;55.65;98808.06;238873;1191;139579;-58
2022/08/23 14:02:50;;;;;;;7.80;7.00;;;;;;;29.01;54.97;98804.89;238626;1190;138827;-58
2022/08/23 14:07:55;;;;;;;8.90;6.80;;;;;;;28.87;54.36;98806.88;238657;1192;139469;-59
2022/08/23 14:13:00;;;;;;;10.00;7.60;;;;;;;28.82;54.32;98802.43;237579;1192;139666;-58
2022/08/23 14:18:04;;;;;;;10.00;7.30;;;;;;;28.87;54.27;98803.92;238461;1190;140397;-58
2022/08/23 14:23:07;;;;;;;8.80;7.40;;;;;;;28.89;54.00;98801.52;238481;1192;139770;-58
2022/08/23 14:28:14;;;;;;;9.00;6.60;;;;;;;28.71;53.48;98797.07;238363;1192;139623;-59
2022/08/23 14:33:20;;;;;;;9.80;8.20;;;;;;;28.56;53.52;98795.02;238967;1192;139134;-60
2022/08/23 14:38:23;;;;;;;11.20;7.70;;;;;;;28.37;53.30;98796.55;238874;1191;138854;-59
2022/08/23 14:43:27;;;;;;;13.30;8.60;;;;;;;28.17;53.29;98795.34;238740;1191;139127;-58
2022/08/23 14:48:30;;;;;;;9.70;7.20;;;;;;;28.00;53.42;98798.23;238683;1192;139623;-58
2022/08/23 14:53:35;;;;;;;11.40;7.60;;;;;;;27.86;53.55;98800.33;238664;1190;138917;-59
2022/08/23 14:58:39;;;;;;;11.20;8.00;;;;;;;27.74;53.86;98809.86;238419;1192;139676;-60
2022/08/23 15:03:42;;;;;;;8.90;7.50;;;;;;;27.66;54.06;98817.35;239021;1191;139773;-59
2022/08/23 15:08:46;;;;;;;11.80;8.00;;;;;;;27.59;54.06;98816.68;238663;1192;139703;-59
2022/08/23 15:13:50;;;;;;;;;;;;;;;27.52;54.05;98826.56;238029;1192;139616;-61
2022/08/23 15:18:58;;;;;;;8.60;7.70;;;;;;;27.42;54.17;98833.02;237779;1190;126098;-60
2022/08/23 15:24:02;;;;;;;9.10;7.10;;;;;;;27.36;54.45;98837.52;238149;1192;139324;-61
2022/08/23 15:29:05;;;;;;;9.90;8.70;;;;;;;27.32;54.58;98839.91;238946;1190;141118;-61
2022/08/23 15:34:09;;;;;;;9.10;7.30;;;;;;;27.29;54.52;98836.84;237112;1190;139520;-61
2022/08/23 15:39:14;;;;;;;8.70;7.10;;;;;;;27.25;54.52;98838.68;238689;1191;139447;-59
2022/08/23 15:44:17;;;;;;;11.40;8.10;;;;;;;27.22;54.40;98848.05;238051;1192;139610;-61
2022/08/23 15:49:24;;;;;;;9.80;7.90;;;;;;;27.19;54.48;98850.99;238939;1192;141592;-59
2022/08/23 15:54:27;;;;;;;10.90;7.50;;;;;;;27.16;54.52;98850.98;238888;1192;140011;-59
2022/08/23 15:59:34;;;;;;;18.90;16.30;;;;;;;27.14;54.56;98851.77;239109;1191;139026;-58
2022/08/23 16:04:37;;;;;;;10.00;8.30;;;;;;;27.13;54.59;98855.52;238233;1192;139500;-60
2022/08/23 16:09:41;;;;;;;8.90;7.90;;;;;;;27.11;54.70;98853.04;237574;1192;140214;-60
2022/08/23 16:14:44;;;;;;;9.20;7.50;;;;;;;27.08;54.78;98859.17;238294;1192;140477;-61
2022/08/23 16:19:47;;;;;;;9.60;8.40;;;;;;;27.04;54.76;98864.41;238384;1192;139385;-60
2022/08/23 16:24:53;;;;;;;9.30;8.20;;;;;;;26.99;54.74;98868.80;238930;1190;139027;-60
2022/08/23 16:29:55;;;;;;;;;;;;;;;26.95;54.92;98871.86;238508;1190;139070;-60
2022/08/23 16:34:59;;;;;;;12.40;8.40;;;;;;;26.89;55.11;98872.52;237624;1190;125365;-60
2022/08/23 16:40:07;;;;;;;10.50;8.80;;;;;;;26.84;55.09;98875.02;238841;1192;139439;-61
2022/08/23 16:45:11;;;;;;;12.80;8.30;;;;;;;26.81;55.20;98887.00;238390;1192;139232;-60
2022/08/23 16:50:14;;;;;;;11.20;9.20;;;;;;;26.78;55.36;98894.65;238908;1192;139900;-60
2022/08/23 16:55:17;;;;;;;12.80;9.20;;;;;;;26.76;55.34;98896.19;238821;1192;139640;-60
2022/08/23 17:00:21;;;;;;;13.60;9.70;;;;;;;26.73;55.48;98894.07;238599;1192;139399;-59
2022/08/23 17:05:24;;;;;;;12.20;9.20;;;;;;;26.69;55.56;98901.12;238229;1192;139826;-60
2022/08/23 17:10:28;;;;;;;13.90;9.60;;;;;;;26.64;55.72;98904.95;238898;1192;139499;-60
2022/08/23 17:15:34;;;;;;;13.80;9.10;;;;;;;26.59;55.74;98901.28;238837;1190;139251;-60
2022/08/23 17:20:38;;;;;;;17.80;10.80;;;;;;;26.54;55.69;98890.20;238588;1192;139767;-60
2022/08/23 17:25:46;;;;;;;13.50;9.40;;;;;;;26.47;55.81;98887.58;237812;1192;140044;-61
2022/08/23 17:30:49;;;;;;;13.70;10.20;;;;;;;26.39;56.01;98893.02;238625;1190;139350;-58
2022/08/23 17:35:53;;;;;;;13.70;10.60;;;;;;;26.32;56.14;98902.13;238399;1190;140053;-58
2022/08/23 17:40:57;;;;;;;17.70;14.00;;;;;;;26.25;56.29;98908.75;238876;1191;139072;-59
2022/08/23 17:46:00;;;;;;;18.50;12.10;;;;;;;26.16;56.49;98921.23;238598;1192;140078;-59
2022/08/23 17:51:04;;;;;;;16.60;11.80;;;;;;;26.09;56.68;98927.10;238855;1192;139944;-60
2022/08/23 17:56:07;;;;;;;14.50;12.10;;;;;;;26.02;56.74;98931.29;238647;1190;139777;-59
2022/08/23 18:01:14;;;;;;;15.20;11.90;;;;;;;25.95;57.06;98936.51;238750;1191;139487;-58
2022/08/23 18:06:18;;;;;;;14.10;12.40;;;;;;;25.94;57.24;98949.88;238678;1192;140048;-58
2022/08/23 18:11:21;;;;;;;18.10;12.90;;;;;;;25.95;57.44;98974.52;238603;1192;139560;-60
2022/08/23 18:16:28;;;;;;;19.50;14.40;;;;;;;25.92;57.55;98978.86;237484;1190;139408;-59
2022/08/23 18:21:38;;;;;;;22.30;15.40;;;;;;;25.88;57.74;98986.80;238435;1191;139677;-58
2022/08/23 18:32:07;;;;;;;19.60;14.00;;;;;;;25.76;58.05;98983.29;238996;1190;139669;-58
2022/08/23 18:37:15;;;;;;;17.20;15.10;;;;;;;25.63;58.01;98991.80;238560;1191;139648;-59
2022/08/23 18:42:18;;;;;;;17.60;14.80;;;;;;;25.51;58.26;99002.39;238028;1190;139435;-59
2022/08/23 18:47:22;;;;;;;22.20;16.00;;;;;;;25.46;58.51;99006.65;238539;1190;140646;-60
2022/08/23 18:52:26;;;;;;;20.30;18.10;;;;;;;25.45;58.82;99014.48;238763;1192;139657;-59
2022/08/23 18:57:32;;;;;;;27.70;19.00;;;;;;;25.44;59.06;99007.06;238650;1190;139024;-59
2022/08/23 19:02:35;;;;;;;23.80;18.50;;;;;;;25.42;59.24;99011.92;238827;1192;139822;-61
2022/08/23 19:07:38;;;;;;;24.10;18.80;;;;;;;25.38;59.26;99013.52;237578;1192;140482;-60
2022/08/23 19:12:41;;;;;;;25.10;19.30;;;;;;;25.34;59.44;99001.43;237914;1192;139962;-59
2022/08/23 19:18:05;;;;;;;25.00;19.00;;;;;;;25.27;59.62;99011.54;238170;1190;139311;-60
2022/08/23 19:23:08;;;;;;;24.70;18.50;;;;;;;25.18;59.47;99013.39;238806;1190;139279;-60
2022/08/23 19:28:12;;;;;;;27.90;18.60;;;;;;;25.17;59.80;99026.27;238827;1192;140095;-59
2022/08/23 19:33:15;;;;;;;28.40;19.80;;;;;;;25.18;59.99;99032.84;239002;1190;140238;-60
2022/08/23 19:38:18;;;;;;;27.50;21.30;;;;;;;25.20;60.09;99037.88;237538;1192;139881;-59
2022/08/23 19:43:21;;;;;;;32.50;25.00;;;;;;;25.18;60.09;99032.87;237809;1192;139790;-60
2022/08/23 19:48:25;;;;;;;28.70;20.60;;;;;;;25.13;60.22;99033.05;237586;1191;139448;-60
2022/08/23 19:53:27;;;;;;;28.30;21.60;;;;;;;25.09;60.39;99036.11;237975;1192;139543;-57
2022/08/23 19:58:31;;;;;;;28.50;20.00;;;;;;;25.03;60.46;99044.86;237720;1191;139137;-59
2022/08/23 20:03:34;;;;;;;26.50;19.60;;;;;;;24.98;60.66;99054.98;237935;1191;140539;-59
2022/08/23 20:08:37;;;;;;;30.00;22.20;;;;;;;24.94;60.69;99062.09;237362;1191;139868;-60
2022/08/23 20:13:41;;;;;;;29.70;22.70;;;;;;;24.90;60.98;99064.41;238893;1192;139306;-59
2022/08/23 20:18:45;;;;;;;28.00;21.30;;;;;;;24.83;61.13;99066.11;238769;1192;139738;-60
2022/08/23 20:24:00;;;;;;;29.40;21.60;;;;;;;24.73;60.98;99064.06;238014;1192;139209;-60
2022/08/23 20:29:04;;;;;;;29.60;20.70;;;;;;;24.64;61.27;99063.17;237542;1192;139547;-59
2022/08/23 20:34:07;;;;;;;28.30;21.50;;;;;;;24.59;61.44;99069.95;237631;1192;139662;-59
2022/08/23 20:39:11;;;;;;;29.80;21.20;;;;;;;24.54;61.67;99071.25;238702;1192;140100;-58
2022/08/23 20:44:14;;;;;;;29.40;21.90;;;;;;;24.47;61.65;99078.43;238695;1192;139837;-59
2022/08/23 20:49:17;;;;;;;29.20;20.70;;;;;;;24.39;61.87;99080.52;237628;1192;140983;-57
2022/08/23 20:54:21;;;;;;;28.60;20.60;;;;;;;24.36;62.02;99085.97;238668;1192;140645;-59
2022/08/23 20:59:24;;;;;;;28.70;21.80;;;;;;;24.35;62.25;99074.86;237874;1191;139398;-57
2022/08/23 21:04:27;;;;;;;29.10;22.80;;;;;;;24.33;62.35;99071.74;238702;1190;139309;-60
2022/08/23 21:09:32;;;;;;;28.20;22.30;;;;;;;24.32;62.56;99066.50;238962;1190;139195;-58
2022/08/23 21:14:35;;;;;;;30.20;22.30;;;;;;;24.27;62.51;99072.10;238407;1190;139291;-58
2022/08/23 21:19:38;;;;;;;30.30;20.50;;;;;;;24.21;62.51;99073.14;237672;1190;140696;-58
2022/08/23 21:24:41;;;;;;;33.60;21.00;;;;;;;24.16;62.64;99077.18;238073;1192;140106;-60
2022/08/23 21:29:44;;;;;;;28.40;21.70;;;;;;;24.11;62.79;99082.48;238590;1191;140829;-60
2022/08/23 21:34:47;;;;;;;30.40;21.90;;;;;;;24.05;62.93;99090.11;238703;1191;139365;-59
2022/08/23 21:39:51;;;;;;;28.10;21.60;;;;;;;24.02;63.19;99099.58;238965;1190;140310;-59
2022/08/23 21:44:54;;;;;;;27.00;20.10;;;;;;;23.97;63.22;99105.96;238050;1191;139932;-60
2022/08/23 21:49:57;;;;;;;26.10;19.90;;;;;;;23.93;63.26;99115.10;238894;1191;140011;-58
2022/08/23 21:55:01;;;;;;;26.00;20.10;;;;;;;23.93;63.43;99110.08;238790;1190;139451;-59
2022/08/23 22:00:15;;;;;;;27.70;21.00;;;;;;;23.93;63.46;99114.42;237917;1190;138902;-60
2022/08/23 22:05:18;;;;;;;27.60;21.20;;;;;;;23.92;63.58;99117.22;238161;1191;139564;-59
2022/08/23 22:10:22;;;;;;;24.20;18.80;;;;;;;23.89;63.55;99109.45;238760;1191;140316;-59
2022/08/23 22:15:25;;;;;;;25.20;19.60;;;;;;;23.91;63.77;99096.08;238746;1192;141183;-60
2022/08/23 22:20:30;;;;;;;26.80;20.90;;;;;;;23.94;63.81;99076.73;238824;1191;141669;-59
2022/08/23 22:25:33;;;;;;;27.10;20.00;;;;;;;23.93;63.86;99069.30;238596;1191;140057;-59
2022/08/23 22:30:36;;;;;;;29.30;21.50;;;;;;;23.88;63.92;99069.48;237896;1191;139765;-60
2022/08/23 22:35:39;;;;;;;26.00;19.40;;;;;;;23.83;63.97;99072.55;238390;1190;139359;-58
2022/08/23 22:40:50;;;;;;;26.80;20.10;;;;;;;23.82;64.07;99070.52;238254;1190;140935;-60
2022/08/23 22:45:56;;;;;;;23.80;18.80;;;;;;;23.81;64.15;99066.95;237636;1192;140145;-60
2022/08/23 22:51:15;;;;;;;29.10;19.80;;;;;;;23.78;64.27;99071.12;238700;1192;139797;-58
2022/08/23 22:56:22;;;;;;;24.60;18.70;;;;;;;23.75;64.44;99069.95;237590;1190;140595;-59
2022/08/23 23:01:31;;;;;;;26.30;18.20;;;;;;;23.70;64.38;99066.84;237234;1190;139284;-60
2022/08/23 23:06:36;;;;;;;28.40;18.70;;;;;;;23.63;64.40;99064.73;238669;1192;140243;-59
2022/08/23 23:11:41;;;;;;;26.90;19.40;;;;;;;23.63;64.66;99062.00;238835;1192;140292;-60
2022/08/23 23:16:45;;;;;;;;;;;;;;;23.61;64.67;99073.33;238186;1192;139602;-60
2022/08/23 23:21:54;;;;;;;25.70;19.60;;;;;;;23.56;64.67;99072.84;238191;1190;125353;-58
2022/08/23 23:26:58;;;;;;;23.50;18.70;;;;;;;23.53;64.75;99066.27;238930;1191;139178;-59
2022/08/23 23:32:01;;;;;;;23.80;18.30;;;;;;;23.51;64.68;99069.20;238823;1190;141105;-61
2022/08/23 23:37:04;;;;;;;24.50;19.00;;;;;;;23.53;64.85;99072.08;238811;1192;141249;-58